To NAV CANADA Home Page Login to a new session Search on AWWS site Feedback and Comments Disclaimer Vers la page française équivalente Tips FAQ What's new on the site To the Forecasts and Observations / NOTAM section To "File a Flight Plan" website Publications and other links Update of the User's profile FIC Telephone Numbers My Weather Data Folder Route Weather Data Regional Weather Data Local Weather Data To the Forecasts and Observations / NOTAM section
Request Generated 05/25/2015 at 23:11:27 UTC . Weather information available at that time is displayed.

METAR/TAF

SARNIA/SARNIA (CHRIS HADFIELD)/ON    (show WxCam)

METAR CYZR 252300Z AUTO 21021G31KT 9SM BKN065 26/16 A2990 RMK SLP123
DENSITY ALT 2000FT=
METAR CYZR 252200Z AUTO 20022G30KT 9SM FEW042 27/17 A2990 RMK SLP123
DENSITY ALT 2100FT=
METAR CYZR 252100Z AUTO 21022G32KT 9SM FEW049 SCT130 27/16 A2991 RMK
SLP125 DENSITY ALT 2100FT=

TAF CYZR 251938Z 2520/2602 21020G30KT P6SM BKN040 TEMPO 2520/2524 3SM
-SHRA BR PROB30 2520/2524 VRB20G30KT 2SM TSRA BR OVC030CB
FM260000 23015KT P6SM SCT050 TEMPO 2600/2602 P6SM -SHRA BKN050
RMK FCST BASED ON AUTO OBS. NXT FCST WILL BE ISSUED AT 261145Z=
Your time UTC time
Weather data provided by Environment Canada and NAV CANADA